sensor_id;sensor_type;location;lat;lon;timestamp;P1;durP1;ratioP1;P2;durP2;ratioP2
50954;SDS011;36966;48.064;-0.792;2022-12-16T00:00:04;6.57;;;3.00;;
50954;SDS011;36966;48.064;-0.792;2022-12-16T00:02:26;6.88;;;2.65;;
50954;SDS011;36966;48.064;-0.792;2022-12-16T00:04:45;3.42;;;2.17;;
50954;SDS011;36966;48.064;-0.792;2022-12-16T00:07:04;10.25;;;3.65;;
50954;SDS011;36966;48.064;-0.792;2022-12-16T00:09:23;5.35;;;2.20;;
50954;SDS011;36966;48.064;-0.792;2022-12-16T00:11:42;6.55;;;2.83;;
50954;SDS011;36966;48.064;-0.792;2022-12-16T00:14:01;6.00;;;3.03;;
50954;SDS011;36966;48.064;-0.792;2022-12-16T00:16:21;9.00;;;3.50;;
50954;SDS011;36966;48.064;-0.792;2022-12-16T00:18:41;5.80;;;2.95;;
50954;SDS011;36966;48.064;-0.792;2022-12-16T00:21:01;6.45;;;3.00;;
50954;SDS011;36966;48.064;-0.792;2022-12-16T00:23:21;5.93;;;2.13;;
50954;SDS011;36966;48.064;-0.792;2022-12-16T00:25:41;7.93;;;2.60;;
50954;SDS011;36966;48.064;-0.792;2022-12-16T00:28:02;8.70;;;3.28;;
50954;SDS011;36966;48.064;-0.792;2022-12-16T00:30:21;5.20;;;1.77;;
50954;SDS011;36966;48.064;-0.792;2022-12-16T00:32:40;4.68;;;2.42;;
50954;SDS011;36966;48.064;-0.792;2022-12-16T00:34:59;7.88;;;2.67;;
50954;SDS011;36966;48.064;-0.792;2022-12-16T00:37:18;5.53;;;2.22;;
50954;SDS011;36966;48.064;-0.792;2022-12-16T00:39:37;4.03;;;2.53;;
50954;SDS011;36966;48.064;-0.792;2022-12-16T00:41:56;6.22;;;2.67;;
50954;SDS011;36966;48.064;-0.792;2022-12-16T00:44:16;4.47;;;2.42;;
50954;SDS011;36966;48.064;-0.792;2022-12-16T00:46:35;5.80;;;3.40;;
50954;SDS011;36966;48.064;-0.792;2022-12-16T00:48:54;3.90;;;2.15;;
50954;SDS011;36966;48.064;-0.792;2022-12-16T00:51:14;5.93;;;2.83;;
50954;SDS011;36966;48.064;-0.792;2022-12-16T00:53:33;6.32;;;2.65;;
50954;SDS011;36966;48.064;-0.792;2022-12-16T00:56:03;6.82;;;2.75;;
50954;SDS011;36966;48.064;-0.792;2022-12-16T00:58:24;9.15;;;2.45;;
50954;SDS011;36966;48.064;-0.792;2022-12-16T01:00:43;5.50;;;2.63;;
50954;SDS011;36966;48.064;-0.792;2022-12-16T01:03:02;6.78;;;2.70;;
50954;SDS011;36966;48.064;-0.792;2022-12-16T01:05:22;7.10;;;2.22;;
50954;SDS011;36966;48.064;-0.792;2022-12-16T01:07:44;4.32;;;2.60;;
50954;SDS011;36966;48.064;-0.792;2022-12-16T01:10:04;5.63;;;2.22;;
50954;SDS011;36966;48.064;-0.792;2022-12-16T01:12:24;6.10;;;3.15;;
50954;SDS011;36966;48.064;-0.792;2022-12-16T01:14:43;8.38;;;2.90;;
50954;SDS011;36966;48.064;-0.792;2022-12-16T01:17:02;7.32;;;2.55;;
50954;SDS011;36966;48.064;-0.792;2022-12-16T01:19:22;7.68;;;2.85;;
50954;SDS011;36966;48.064;-0.792;2022-12-16T01:21:41;5.28;;;2.83;;
50954;SDS011;36966;48.064;-0.792;2022-12-16T01:24:00;9.55;;;2.90;;
50954;SDS011;36966;48.064;-0.792;2022-12-16T01:26:20;7.22;;;2.40;;
50954;SDS011;36966;48.064;-0.792;2022-12-16T01:28:39;6.30;;;2.45;;
50954;SDS011;36966;48.064;-0.792;2022-12-16T01:30:59;6.80;;;2.58;;
50954;SDS011;36966;48.064;-0.792;2022-12-16T01:33:19;11.38;;;3.00;;
50954;SDS011;36966;48.064;-0.792;2022-12-16T01:35:38;6.78;;;3.15;;
50954;SDS011;36966;48.064;-0.792;2022-12-16T01:37:57;6.45;;;2.45;;
50954;SDS011;36966;48.064;-0.792;2022-12-16T01:40:20;4.70;;;2.58;;
50954;SDS011;36966;48.064;-0.792;2022-12-16T01:42:42;5.90;;;2.30;;
50954;SDS011;36966;48.064;-0.792;2022-12-16T01:47:51;4.63;;;2.38;;
50954;SDS011;36966;48.064;-0.792;2022-12-16T01:50:13;8.55;;;2.63;;
50954;SDS011;36966;48.064;-0.792;2022-12-16T01:52:36;9.18;;;2.80;;
50954;SDS011;36966;48.064;-0.792;2022-12-16T01:55:22;5.47;;;2.40;;
50954;SDS011;36966;48.064;-0.792;2022-12-16T01:57:47;5.28;;;2.58;;
50954;SDS011;36966;48.064;-0.792;2022-12-16T02:00:11;6.43;;;2.42;;
50954;SDS011;36966;48.064;-0.792;2022-12-16T02:02:31;3.90;;;2.15;;
50954;SDS011;36966;48.064;-0.792;2022-12-16T02:04:51;8.57;;;2.65;;
50954;SDS011;36966;48.064;-0.792;2022-12-16T02:07:31;6.38;;;2.72;;
50954;SDS011;36966;48.064;-0.792;2022-12-16T02:09:50;5.07;;;2.67;;
50954;SDS011;36966;48.064;-0.792;2022-12-16T02:15:13;6.50;;;2.60;;
50954;SDS011;36966;48.064;-0.792;2022-12-16T02:18:06;7.72;;;2.97;;
50954;SDS011;36966;48.064;-0.792;2022-12-16T02:39:36;9.75;;;2.92;;
50954;SDS011;36966;48.064;-0.792;2022-12-16T02:42:30;5.50;;;1.95;;
50954;SDS011;36966;48.064;-0.792;2022-12-16T02:44:56;7.63;;;2.40;;
50954;SDS011;36966;48.064;-0.792;2022-12-16T02:47:22;8.02;;;2.75;;
50954;SDS011;36966;48.064;-0.792;2022-12-16T02:49:47;4.97;;;3.00;;
50954;SDS011;36966;48.064;-0.792;2022-12-16T02:52:09;4.55;;;2.80;;
50954;SDS011;36966;48.064;-0.792;2022-12-16T02:54:28;7.32;;;2.35;;
50954;SDS011;36966;48.064;-0.792;2022-12-16T03:06:51;8.88;;;2.55;;
50954;SDS011;36966;48.064;-0.792;2022-12-16T03:09:13;7.25;;;2.95;;
50954;SDS011;36966;48.064;-0.792;2022-12-16T03:11:37;6.55;;;2.63;;
50954;SDS011;36966;48.064;-0.792;2022-12-16T03:14:00;7.63;;;2.75;;
50954;SDS011;36966;48.064;-0.792;2022-12-16T03:16:25;7.30;;;2.42;;
50954;SDS011;36966;48.064;-0.792;2022-12-16T03:18:49;3.63;;;2.33;;
50954;SDS011;36966;48.064;-0.792;2022-12-16T03:21:11;7.13;;;2.38;;
50954;SDS011;36966;48.064;-0.792;2022-12-16T03:23:35;9.07;;;3.15;;
50954;SDS011;36966;48.064;-0.792;2022-12-16T03:26:02;6.30;;;2.70;;
50954;SDS011;36966;48.064;-0.792;2022-12-16T03:31:12;7.13;;;2.65;;
50954;SDS011;36966;48.064;-0.792;2022-12-16T03:33:38;12.05;;;2.38;;
50954;SDS011;36966;48.064;-0.792;2022-12-16T03:36:08;4.60;;;2.40;;
50954;SDS011;36966;48.064;-0.792;2022-12-16T03:38:32;8.35;;;2.15;;
50954;SDS011;36966;48.064;-0.792;2022-12-16T03:40:52;5.22;;;2.10;;
50954;SDS011;36966;48.064;-0.792;2022-12-16T03:43:14;5.03;;;1.85;;
50954;SDS011;36966;48.064;-0.792;2022-12-16T03:45:35;5.95;;;2.35;;
50954;SDS011;36966;48.064;-0.792;2022-12-16T03:47:57;5.68;;;2.60;;
50954;SDS011;36966;48.064;-0.792;2022-12-16T03:50:18;5.68;;;3.20;;
50954;SDS011;36966;48.064;-0.792;2022-12-16T03:52:43;7.93;;;2.60;;
50954;SDS011;36966;48.064;-0.792;2022-12-16T03:55:02;8.32;;;2.15;;
50954;SDS011;36966;48.064;-0.792;2022-12-16T03:57:22;4.05;;;2.13;;
50954;SDS011;36966;48.064;-0.792;2022-12-16T03:59:41;7.13;;;2.70;;
50954;SDS011;36966;48.064;-0.792;2022-12-16T04:02:00;6.38;;;2.40;;
50954;SDS011;36966;48.064;-0.792;2022-12-16T04:04:19;3.95;;;2.25;;
50954;SDS011;36966;48.064;-0.792;2022-12-16T04:06:38;11.00;;;2.78;;
50954;SDS011;36966;48.064;-0.792;2022-12-16T04:08:57;7.80;;;2.17;;
50954;SDS011;36966;48.064;-0.792;2022-12-16T04:11:16;7.70;;;2.25;;
50954;SDS011;36966;48.064;-0.792;2022-12-16T04:13:55;4.85;;;2.67;;
50954;SDS011;36966;48.064;-0.792;2022-12-16T04:16:33;7.40;;;2.80;;
50954;SDS011;36966;48.064;-0.792;2022-12-16T04:19:14;7.90;;;2.00;;
50954;SDS011;36966;48.064;-0.792;2022-12-16T04:22:00;7.88;;;2.22;;
50954;SDS011;36966;48.064;-0.792;2022-12-16T04:24:38;5.75;;;2.30;;
50954;SDS011;36966;48.064;-0.792;2022-12-16T04:26:58;6.15;;;2.05;;
50954;SDS011;36966;48.064;-0.792;2022-12-16T04:29:36;4.43;;;1.75;;
50954;SDS011;36966;48.064;-0.792;2022-12-16T04:32:15;5.13;;;1.73;;
50954;SDS011;36966;48.064;-0.792;2022-12-16T04:34:34;5.25;;;1.83;;
50954;SDS011;36966;48.064;-0.792;2022-12-16T04:36:58;4.72;;;1.55;;
50954;SDS011;36966;48.064;-0.792;2022-12-16T04:39:37;5.38;;;1.90;;
50954;SDS011;36966;48.064;-0.792;2022-12-16T04:42:15;5.90;;;1.60;;
50954;SDS011;36966;48.064;-0.792;2022-12-16T04:44:53;3.80;;;2.30;;
50954;SDS011;36966;48.064;-0.792;2022-12-16T04:47:31;5.07;;;1.77;;
50954;SDS011;36966;48.064;-0.792;2022-12-16T04:50:09;4.90;;;1.63;;
50954;SDS011;36966;48.064;-0.792;2022-12-16T04:52:49;6.30;;;1.77;;
50954;SDS011;36966;48.064;-0.792;2022-12-16T04:55:29;2.45;;;1.38;;
50954;SDS011;36966;48.064;-0.792;2022-12-16T04:58:07;4.53;;;1.42;;
50954;SDS011;36966;48.064;-0.792;2022-12-16T05:00:46;6.25;;;2.22;;
50954;SDS011;36966;48.064;-0.792;2022-12-16T05:03:25;5.82;;;1.98;;
50954;SDS011;36966;48.064;-0.792;2022-12-16T05:06:04;6.75;;;1.33;;
50954;SDS011;36966;48.064;-0.792;2022-12-16T05:08:42;3.35;;;1.23;;
50954;SDS011;36966;48.064;-0.792;2022-12-16T05:11:20;4.80;;;1.90;;
50954;SDS011;36966;48.064;-0.792;2022-12-16T05:13:59;4.25;;;1.88;;
50954;SDS011;36966;48.064;-0.792;2022-12-16T05:16:37;7.15;;;1.30;;
50954;SDS011;36966;48.064;-0.792;2022-12-16T05:19:15;3.55;;;1.30;;
50954;SDS011;36966;48.064;-0.792;2022-12-16T05:21:53;6.13;;;1.58;;
50954;SDS011;36966;48.064;-0.792;2022-12-16T05:24:31;3.13;;;1.38;;
50954;SDS011;36966;48.064;-0.792;2022-12-16T05:27:09;3.22;;;1.52;;
50954;SDS011;36966;48.064;-0.792;2022-12-16T05:29:47;6.13;;;1.52;;
50954;SDS011;36966;48.064;-0.792;2022-12-16T05:32:25;2.70;;;1.70;;
50954;SDS011;36966;48.064;-0.792;2022-12-16T05:35:03;5.47;;;1.27;;
50954;SDS011;36966;48.064;-0.792;2022-12-16T05:37:42;5.97;;;1.60;;
50954;SDS011;36966;48.064;-0.792;2022-12-16T05:40:20;4.13;;;1.42;;
50954;SDS011;36966;48.064;-0.792;2022-12-16T05:42:58;3.47;;;1.38;;
50954;SDS011;36966;48.064;-0.792;2022-12-16T05:45:36;5.82;;;1.23;;
50954;SDS011;36966;48.064;-0.792;2022-12-16T05:48:16;8.02;;;2.00;;
50954;SDS011;36966;48.064;-0.792;2022-12-16T05:50:54;4.28;;;1.50;;
50954;SDS011;36966;48.064;-0.792;2022-12-16T05:53:32;5.15;;;1.27;;
50954;SDS011;36966;48.064;-0.792;2022-12-16T05:56:10;1.92;;;1.15;;
50954;SDS011;36966;48.064;-0.792;2022-12-16T05:58:49;3.60;;;1.50;;
50954;SDS011;36966;48.064;-0.792;2022-12-16T06:01:27;3.13;;;1.42;;
50954;SDS011;36966;48.064;-0.792;2022-12-16T06:04:05;6.72;;;1.92;;
50954;SDS011;36966;48.064;-0.792;2022-12-16T06:06:43;4.28;;;1.73;;
50954;SDS011;36966;48.064;-0.792;2022-12-16T06:09:21;2.78;;;1.40;;
50954;SDS011;36966;48.064;-0.792;2022-12-16T06:11:59;6.30;;;2.08;;
50954;SDS011;36966;48.064;-0.792;2022-12-16T06:14:37;3.97;;;1.95;;
50954;SDS011;36966;48.064;-0.792;2022-12-16T06:17:16;4.78;;;1.67;;
50954;SDS011;36966;48.064;-0.792;2022-12-16T06:20:04;5.20;;;2.50;;
50954;SDS011;36966;48.064;-0.792;2022-12-16T06:22:49;2.83;;;1.02;;
50954;SDS011;36966;48.064;-0.792;2022-12-16T06:25:30;5.22;;;1.75;;
50954;SDS011;36966;48.064;-0.792;2022-12-16T06:28:28;3.65;;;1.30;;
50954;SDS011;36966;48.064;-0.792;2022-12-16T06:31:06;4.47;;;1.60;;
50954;SDS011;36966;48.064;-0.792;2022-12-16T06:33:45;3.78;;;1.40;;
50954;SDS011;36966;48.064;-0.792;2022-12-16T06:36:23;6.85;;;2.22;;
50954;SDS011;36966;48.064;-0.792;2022-12-16T06:39:01;3.72;;;1.88;;
50954;SDS011;36966;48.064;-0.792;2022-12-16T06:41:39;4.45;;;2.30;;
50954;SDS011;36966;48.064;-0.792;2022-12-16T06:44:17;6.75;;;2.40;;
50954;SDS011;36966;48.064;-0.792;2022-12-16T06:46:55;6.13;;;1.92;;
50954;SDS011;36966;48.064;-0.792;2022-12-16T06:49:33;7.95;;;2.53;;
50954;SDS011;36966;48.064;-0.792;2022-12-16T06:52:11;9.55;;;2.25;;
50954;SDS011;36966;48.064;-0.792;2022-12-16T06:54:49;6.53;;;2.63;;
50954;SDS011;36966;48.064;-0.792;2022-12-16T06:57:27;7.80;;;3.20;;
50954;SDS011;36966;48.064;-0.792;2022-12-16T07:00:05;6.85;;;3.05;;
50954;SDS011;36966;48.064;-0.792;2022-12-16T07:02:44;6.43;;;3.58;;
50954;SDS011;36966;48.064;-0.792;2022-12-16T07:05:22;7.57;;;2.95;;
50954;SDS011;36966;48.064;-0.792;2022-12-16T07:08:00;9.30;;;3.33;;
50954;SDS011;36966;48.064;-0.792;2022-12-16T07:10:38;9.82;;;3.88;;
50954;SDS011;36966;48.064;-0.792;2022-12-16T07:13:24;9.23;;;3.28;;
50954;SDS011;36966;48.064;-0.792;2022-12-16T07:16:02;31.02;;;15.25;;
50954;SDS011;36966;48.064;-0.792;2022-12-16T07:18:40;20.15;;;10.70;;
50954;SDS011;36966;48.064;-0.792;2022-12-16T07:21:18;9.68;;;5.10;;
50954;SDS011;36966;48.064;-0.792;2022-12-16T07:23:56;8.63;;;3.83;;
50954;SDS011;36966;48.064;-0.792;2022-12-16T07:26:35;9.25;;;3.55;;
50954;SDS011;36966;48.064;-0.792;2022-12-16T07:29:13;13.38;;;3.95;;
50954;SDS011;36966;48.064;-0.792;2022-12-16T07:31:51;7.10;;;4.25;;
50954;SDS011;36966;48.064;-0.792;2022-12-16T07:34:29;9.68;;;4.00;;
50954;SDS011;36966;48.064;-0.792;2022-12-16T07:37:07;11.73;;;5.32;;
50954;SDS011;36966;48.064;-0.792;2022-12-16T07:39:45;6.50;;;4.22;;
50954;SDS011;36966;48.064;-0.792;2022-12-16T07:42:23;5.95;;;3.40;;
50954;SDS011;36966;48.064;-0.792;2022-12-16T07:45:01;11.70;;;3.67;;
50954;SDS011;36966;48.064;-0.792;2022-12-16T07:47:54;9.40;;;3.97;;
50954;SDS011;36966;48.064;-0.792;2022-12-16T07:50:33;5.93;;;3.13;;
50954;SDS011;36966;48.064;-0.792;2022-12-16T07:53:12;15.88;;;4.40;;
50954;SDS011;36966;48.064;-0.792;2022-12-16T07:55:50;13.55;;;4.57;;
50954;SDS011;36966;48.064;-0.792;2022-12-16T07:58:28;11.48;;;5.35;;
50954;SDS011;36966;48.064;-0.792;2022-12-16T08:01:06;15.15;;;6.72;;
50954;SDS011;36966;48.064;-0.792;2022-12-16T08:03:44;13.30;;;5.78;;
50954;SDS011;36966;48.064;-0.792;2022-12-16T08:06:22;8.50;;;4.55;;
50954;SDS011;36966;48.064;-0.792;2022-12-16T08:09:00;10.20;;;5.03;;
50954;SDS011;36966;48.064;-0.792;2022-12-16T08:11:39;14.55;;;5.65;;
50954;SDS011;36966;48.064;-0.792;2022-12-16T08:14:18;10.38;;;5.40;;
50954;SDS011;36966;48.064;-0.792;2022-12-16T08:16:56;9.45;;;4.72;;
50954;SDS011;36966;48.064;-0.792;2022-12-16T08:19:34;12.43;;;5.75;;
50954;SDS011;36966;48.064;-0.792;2022-12-16T08:22:12;11.40;;;5.43;;
50954;SDS011;36966;48.064;-0.792;2022-12-16T08:24:50;10.43;;;3.72;;
50954;SDS011;36966;48.064;-0.792;2022-12-16T08:27:28;9.70;;;4.43;;
50954;SDS011;36966;48.064;-0.792;2022-12-16T08:30:06;7.05;;;3.70;;
50954;SDS011;36966;48.064;-0.792;2022-12-16T08:32:45;11.40;;;3.45;;
50954;SDS011;36966;48.064;-0.792;2022-12-16T08:35:23;6.82;;;3.25;;
50954;SDS011;36966;48.064;-0.792;2022-12-16T08:38:01;8.48;;;3.80;;
50954;SDS011;36966;48.064;-0.792;2022-12-16T08:40:40;7.88;;;3.67;;
50954;SDS011;36966;48.064;-0.792;2022-12-16T08:43:19;10.15;;;3.55;;
50954;SDS011;36966;48.064;-0.792;2022-12-16T08:45:57;4.95;;;3.10;;
50954;SDS011;36966;48.064;-0.792;2022-12-16T08:48:35;7.38;;;2.58;;
50954;SDS011;36966;48.064;-0.792;2022-12-16T08:51:13;10.25;;;2.95;;
50954;SDS011;36966;48.064;-0.792;2022-12-16T08:53:51;10.85;;;3.42;;
50954;SDS011;36966;48.064;-0.792;2022-12-16T08:56:29;11.45;;;3.40;;
50954;SDS011;36966;48.064;-0.792;2022-12-16T08:59:07;9.35;;;4.13;;
50954;SDS011;36966;48.064;-0.792;2022-12-16T09:01:45;13.48;;;3.55;;
50954;SDS011;36966;48.064;-0.792;2022-12-16T09:04:23;8.60;;;4.25;;
50954;SDS011;36966;48.064;-0.792;2022-12-16T09:07:01;7.90;;;3.67;;
50954;SDS011;36966;48.064;-0.792;2022-12-16T09:09:39;13.63;;;3.60;;
50954;SDS011;36966;48.064;-0.792;2022-12-16T09:12:18;12.18;;;4.05;;
50954;SDS011;36966;48.064;-0.792;2022-12-16T09:14:56;6.07;;;3.33;;
50954;SDS011;36966;48.064;-0.792;2022-12-16T09:17:38;8.57;;;3.40;;
50954;SDS011;36966;48.064;-0.792;2022-12-16T09:20:16;7.20;;;3.42;;
50954;SDS011;36966;48.064;-0.792;2022-12-16T09:22:54;7.72;;;3.35;;
50954;SDS011;36966;48.064;-0.792;2022-12-16T09:25:32;10.65;;;3.55;;
50954;SDS011;36966;48.064;-0.792;2022-12-16T09:28:11;11.20;;;3.97;;
50954;SDS011;36966;48.064;-0.792;2022-12-16T09:30:49;8.23;;;4.00;;
50954;SDS011;36966;48.064;-0.792;2022-12-16T09:33:27;31.23;;;17.50;;
50954;SDS011;36966;48.064;-0.792;2022-12-16T09:36:05;45.83;;;26.20;;
50954;SDS011;36966;48.064;-0.792;2022-12-16T09:38:43;45.67;;;26.60;;
50954;SDS011;36966;48.064;-0.792;2022-12-16T09:44:29;36.70;;;21.00;;
50954;SDS011;36966;48.064;-0.792;2022-12-16T09:50:22;43.38;;;25.80;;
50954;SDS011;36966;48.064;-0.792;2022-12-16T09:53:09;40.80;;;23.20;;
50954;SDS011;36966;48.064;-0.792;2022-12-16T09:55:52;36.53;;;21.00;;
50954;SDS011;36966;48.064;-0.792;2022-12-16T09:58:38;34.15;;;20.23;;
50954;SDS011;36966;48.064;-0.792;2022-12-16T10:01:21;30.83;;;17.15;;
50954;SDS011;36966;48.064;-0.792;2022-12-16T10:04:00;28.15;;;16.20;;
50954;SDS011;36966;48.064;-0.792;2022-12-16T10:06:50;32.38;;;16.52;;
50954;SDS011;36966;48.064;-0.792;2022-12-16T10:12:32;26.80;;;14.15;;
50954;SDS011;36966;48.064;-0.792;2022-12-16T10:15:10;26.05;;;13.07;;
50954;SDS011;36966;48.064;-0.792;2022-12-16T10:18:04;29.95;;;13.40;;
50954;SDS011;36966;48.064;-0.792;2022-12-16T10:20:55;21.65;;;13.48;;
50954;SDS011;36966;48.064;-0.792;2022-12-16T10:23:39;18.95;;;10.65;;
50954;SDS011;36966;48.064;-0.792;2022-12-16T10:29:19;23.60;;;11.10;;
50954;SDS011;36966;48.064;-0.792;2022-12-16T10:32:04;22.27;;;12.05;;
50954;SDS011;36966;48.064;-0.792;2022-12-16T10:35:00;16.77;;;9.57;;
50954;SDS011;36966;48.064;-0.792;2022-12-16T10:37:40;23.75;;;10.85;;
50954;SDS011;36966;48.064;-0.792;2022-12-16T10:40:26;19.17;;;10.05;;
50954;SDS011;36966;48.064;-0.792;2022-12-16T10:43:24;20.27;;;9.63;;
50954;SDS011;36966;48.064;-0.792;2022-12-16T10:46:20;13.93;;;8.73;;
50954;SDS011;36966;48.064;-0.792;2022-12-16T10:49:01;16.40;;;8.90;;
50954;SDS011;36966;48.064;-0.792;2022-12-16T10:51:39;15.15;;;8.18;;
50954;SDS011;36966;48.064;-0.792;2022-12-16T11:00:13;13.90;;;5.83;;
50954;SDS011;36966;48.064;-0.792;2022-12-16T11:02:53;17.42;;;7.70;;
50954;SDS011;36966;48.064;-0.792;2022-12-16T11:05:32;16.65;;;7.32;;
50954;SDS011;36966;48.064;-0.792;2022-12-16T11:11:23;19.40;;;9.65;;
50954;SDS011;36966;48.064;-0.792;2022-12-16T11:14:07;15.85;;;8.63;;
50954;SDS011;36966;48.064;-0.792;2022-12-16T11:16:55;18.08;;;7.97;;
50954;SDS011;36966;48.064;-0.792;2022-12-16T11:20:17;23.35;;;9.25;;
50954;SDS011;36966;48.064;-0.792;2022-12-16T11:23:08;11.38;;;6.82;;
50954;SDS011;36966;48.064;-0.792;2022-12-16T11:29:02;12.55;;;6.88;;
50954;SDS011;36966;48.064;-0.792;2022-12-16T11:35:11;9.40;;;5.05;;
50954;SDS011;36966;48.064;-0.792;2022-12-16T11:38:01;12.23;;;5.50;;
50954;SDS011;36966;48.064;-0.792;2022-12-16T11:40:41;11.27;;;6.35;;
50954;SDS011;36966;48.064;-0.792;2022-12-16T11:43:19;11.77;;;5.13;;
50954;SDS011;36966;48.064;-0.792;2022-12-16T11:46:02;10.68;;;5.03;;
50954;SDS011;36966;48.064;-0.792;2022-12-16T11:49:07;7.90;;;4.25;;
50954;SDS011;36966;48.064;-0.792;2022-12-16T11:51:53;12.20;;;5.53;;
50954;SDS011;36966;48.064;-0.792;2022-12-16T11:54:34;9.75;;;4.45;;
50954;SDS011;36966;48.064;-0.792;2022-12-16T11:57:30;9.50;;;4.40;;
50954;SDS011;36966;48.064;-0.792;2022-12-16T12:00:17;7.68;;;3.78;;
50954;SDS011;36966;48.064;-0.792;2022-12-16T12:08:57;11.75;;;3.55;;
50954;SDS011;36966;48.064;-0.792;2022-12-16T12:14:35;7.22;;;3.13;;
50954;SDS011;36966;48.064;-0.792;2022-12-16T12:20:26;5.95;;;2.65;;
50954;SDS011;36966;48.064;-0.792;2022-12-16T12:24:04;5.28;;;2.65;;
50954;SDS011;36966;48.064;-0.792;2022-12-16T12:26:24;7.28;;;2.47;;
50954;SDS011;36966;48.064;-0.792;2022-12-16T12:43:00;4.38;;;1.80;;
50954;SDS011;36966;48.064;-0.792;2022-12-16T12:54:43;6.63;;;1.55;;
50954;SDS011;36966;48.064;-0.792;2022-12-16T12:57:43;5.15;;;2.15;;
50954;SDS011;36966;48.064;-0.792;2022-12-16T13:00:25;9.75;;;2.58;;
50954;SDS011;36966;48.064;-0.792;2022-12-16T13:06:11;7.88;;;2.33;;
50954;SDS011;36966;48.064;-0.792;2022-12-16T13:08:55;11.45;;;2.13;;
50954;SDS011;36966;48.064;-0.792;2022-12-16T13:11:35;4.75;;;1.52;;
50954;SDS011;36966;48.064;-0.792;2022-12-16T13:17:08;8.88;;;3.10;;
50954;SDS011;36966;48.064;-0.792;2022-12-16T13:19:53;5.78;;;2.67;;
50954;SDS011;36966;48.064;-0.792;2022-12-16T13:22:36;7.65;;;1.92;;
50954;SDS011;36966;48.064;-0.792;2022-12-16T13:31:03;3.17;;;1.50;;
50954;SDS011;36966;48.064;-0.792;2022-12-16T13:33:47;6.28;;;1.50;;
50954;SDS011;36966;48.064;-0.792;2022-12-16T13:36:32;6.57;;;2.83;;
50954;SDS011;36966;48.064;-0.792;2022-12-16T13:42:03;7.72;;;2.30;;
50954;SDS011;36966;48.064;-0.792;2022-12-16T13:50:40;4.40;;;1.55;;
50954;SDS011;36966;48.064;-0.792;2022-12-16T13:53:30;6.53;;;1.70;;
50954;SDS011;36966;48.064;-0.792;2022-12-16T13:56:32;6.95;;;1.70;;
50954;SDS011;36966;48.064;-0.792;2022-12-16T13:59:21;3.90;;;0.85;;
50954;SDS011;36966;48.064;-0.792;2022-12-16T14:02:14;2.50;;;0.70;;
50954;SDS011;36966;48.064;-0.792;2022-12-16T14:04:57;4.32;;;0.55;;
50954;SDS011;36966;48.064;-0.792;2022-12-16T14:07:39;7.85;;;1.02;;
50954;SDS011;36966;48.064;-0.792;2022-12-16T14:10:32;4.10;;;1.55;;
50954;SDS011;36966;48.064;-0.792;2022-12-16T14:21:43;9.88;;;2.92;;
50954;SDS011;36966;48.064;-0.792;2022-12-16T14:24:28;6.00;;;2.53;;
50954;SDS011;36966;48.064;-0.792;2022-12-16T14:27:16;9.73;;;2.20;;
50954;SDS011;36966;48.064;-0.792;2022-12-16T14:29:56;6.57;;;2.75;;
50954;SDS011;36966;48.064;-0.792;2022-12-16T14:32:35;5.40;;;1.63;;
50954;SDS011;36966;48.064;-0.792;2022-12-16T14:37:53;8.60;;;3.90;;
50954;SDS011;36966;48.064;-0.792;2022-12-16T14:40:31;6.15;;;1.90;;
50954;SDS011;36966;48.064;-0.792;2022-12-16T14:43:23;6.57;;;2.17;;
50954;SDS011;36966;48.064;-0.792;2022-12-16T14:46:02;10.00;;;2.83;;
50954;SDS011;36966;48.064;-0.792;2022-12-16T14:48:51;6.00;;;2.38;;
50954;SDS011;36966;48.064;-0.792;2022-12-16T14:57:12;7.82;;;1.80;;
50954;SDS011;36966;48.064;-0.792;2022-12-16T14:59:59;9.30;;;2.80;;
50954;SDS011;36966;48.064;-0.792;2022-12-16T15:02:39;6.35;;;2.10;;
50954;SDS011;36966;48.064;-0.792;2022-12-16T15:05:21;6.70;;;2.20;;
50954;SDS011;36966;48.064;-0.792;2022-12-16T15:08:11;6.55;;;2.85;;
50954;SDS011;36966;48.064;-0.792;2022-12-16T15:10:50;7.85;;;2.30;;
50954;SDS011;36966;48.064;-0.792;2022-12-16T15:13:28;9.35;;;1.92;;
50954;SDS011;36966;48.064;-0.792;2022-12-16T15:16:10;7.32;;;2.22;;
50954;SDS011;36966;48.064;-0.792;2022-12-16T15:18:56;7.28;;;2.22;;
50954;SDS011;36966;48.064;-0.792;2022-12-16T15:21:36;12.60;;;2.08;;
50954;SDS011;36966;48.064;-0.792;2022-12-16T15:24:18;4.13;;;2.15;;
50954;SDS011;36966;48.064;-0.792;2022-12-16T15:29:50;12.10;;;3.17;;
50954;SDS011;36966;48.064;-0.792;2022-12-16T15:32:30;6.32;;;2.58;;
50954;SDS011;36966;48.064;-0.792;2022-12-16T15:35:10;9.25;;;2.30;;
50954;SDS011;36966;48.064;-0.792;2022-12-16T15:37:59;7.05;;;1.92;;
50954;SDS011;36966;48.064;-0.792;2022-12-16T15:40:39;10.10;;;2.83;;
50954;SDS011;36966;48.064;-0.792;2022-12-16T15:43:28;4.57;;;1.83;;
50954;SDS011;36966;48.064;-0.792;2022-12-16T15:46:17;7.97;;;1.90;;
50954;SDS011;36966;48.064;-0.792;2022-12-16T15:49:04;6.25;;;2.47;;
50954;SDS011;36966;48.064;-0.792;2022-12-16T15:51:51;8.35;;;2.58;;
50954;SDS011;36966;48.064;-0.792;2022-12-16T15:54:29;5.78;;;2.78;;
50954;SDS011;36966;48.064;-0.792;2022-12-16T15:57:26;8.65;;;2.80;;
50954;SDS011;36966;48.064;-0.792;2022-12-16T16:00:16;6.97;;;2.60;;
50954;SDS011;36966;48.064;-0.792;2022-12-16T16:02:54;4.80;;;2.60;;
50954;SDS011;36966;48.064;-0.792;2022-12-16T16:05:33;6.85;;;1.92;;
50954;SDS011;36966;48.064;-0.792;2022-12-16T16:08:13;15.05;;;3.15;;
50954;SDS011;36966;48.064;-0.792;2022-12-16T16:10:51;7.38;;;1.95;;
50954;SDS011;36966;48.064;-0.792;2022-12-16T16:13:29;5.75;;;1.92;;
50954;SDS011;36966;48.064;-0.792;2022-12-16T16:16:07;6.00;;;2.35;;
50954;SDS011;36966;48.064;-0.792;2022-12-16T16:18:47;9.45;;;1.75;;
50954;SDS011;36966;48.064;-0.792;2022-12-16T16:21:41;7.03;;;2.47;;
50954;SDS011;36966;48.064;-0.792;2022-12-16T16:24:20;4.88;;;2.13;;
50954;SDS011;36966;48.064;-0.792;2022-12-16T16:26:58;4.07;;;1.95;;
50954;SDS011;36966;48.064;-0.792;2022-12-16T16:29:38;8.95;;;3.15;;
50954;SDS011;36966;48.064;-0.792;2022-12-16T16:32:16;8.43;;;2.95;;
50954;SDS011;36966;48.064;-0.792;2022-12-16T16:34:54;11.13;;;3.85;;
50954;SDS011;36966;48.064;-0.792;2022-12-16T16:37:33;10.60;;;3.22;;
50954;SDS011;36966;48.064;-0.792;2022-12-16T16:40:14;8.68;;;3.45;;
50954;SDS011;36966;48.064;-0.792;2022-12-16T16:43:08;9.38;;;2.58;;
50954;SDS011;36966;48.064;-0.792;2022-12-16T16:45:51;12.15;;;3.65;;
50954;SDS011;36966;48.064;-0.792;2022-12-16T16:48:31;7.70;;;3.78;;
50954;SDS011;36966;48.064;-0.792;2022-12-16T16:51:10;13.52;;;5.32;;
50954;SDS011;36966;48.064;-0.792;2022-12-16T16:53:48;12.75;;;5.70;;
50954;SDS011;36966;48.064;-0.792;2022-12-16T16:56:26;13.55;;;5.40;;
50954;SDS011;36966;48.064;-0.792;2022-12-16T16:59:08;10.90;;;5.38;;
50954;SDS011;36966;48.064;-0.792;2022-12-16T17:01:48;11.82;;;5.38;;
50954;SDS011;36966;48.064;-0.792;2022-12-16T17:04:26;13.25;;;5.05;;
50954;SDS011;36966;48.064;-0.792;2022-12-16T17:07:04;10.98;;;4.65;;
50954;SDS011;36966;48.064;-0.792;2022-12-16T17:09:42;15.07;;;7.45;;
50954;SDS011;36966;48.064;-0.792;2022-12-16T17:12:21;19.85;;;8.57;;
50954;SDS011;36966;48.064;-0.792;2022-12-16T17:15:06;22.23;;;10.10;;
50954;SDS011;36966;48.064;-0.792;2022-12-16T17:17:56;35.17;;;15.00;;
50954;SDS011;36966;48.064;-0.792;2022-12-16T17:20:34;29.88;;;13.32;;
50954;SDS011;36966;48.064;-0.792;2022-12-16T17:23:13;25.67;;;10.82;;
50954;SDS011;36966;48.064;-0.792;2022-12-16T17:25:51;29.15;;;12.48;;
50954;SDS011;36966;48.064;-0.792;2022-12-16T17:28:29;30.00;;;11.82;;
50954;SDS011;36966;48.064;-0.792;2022-12-16T17:31:07;31.75;;;15.18;;
50954;SDS011;36966;48.064;-0.792;2022-12-16T17:33:47;38.45;;;17.52;;
50954;SDS011;36966;48.064;-0.792;2022-12-16T17:36:25;38.63;;;16.70;;
50954;SDS011;36966;48.064;-0.792;2022-12-16T17:39:04;31.45;;;15.10;;
50954;SDS011;36966;48.064;-0.792;2022-12-16T17:41:42;33.75;;;14.32;;